createdAt,value
2018-08-03T00:04:30.821Z,23.80
2018-08-03T00:09:23.845Z,23.60
2018-08-03T00:14:16.848Z,23.40
2018-08-03T00:19:09.875Z,23.20
2018-08-03T00:24:02.896Z,23.10
2018-08-03T00:28:55.876Z,23.00
2018-08-03T00:33:48.952Z,22.90
2018-08-03T00:38:41.932Z,22.90
2018-08-03T00:43:34.893Z,22.90
2018-08-03T00:48:27.879Z,22.90
2018-08-03T00:53:20.888Z,23.00
2018-08-03T00:58:13.900Z,22.90
2018-08-03T01:03:07.981Z,22.70
2018-08-03T01:08:00.968Z,22.60
2018-08-03T01:12:53.961Z,22.60
2018-08-03T01:17:46.966Z,22.60
2018-08-03T01:22:39.972Z,22.50
2018-08-03T01:32:26.057Z,22.20
2018-08-03T01:37:19.047Z,22.10
2018-08-03T01:42:12.064Z,22.20
2018-08-03T01:47:05.228Z,22.40
2018-08-03T01:51:58.243Z,22.50
2018-08-03T01:56:51.256Z,22.50
2018-08-03T02:06:37.252Z,22.30
2018-08-03T02:11:30.314Z,22.20
2018-08-03T02:16:23.332Z,22.20
2018-08-03T02:26:09.394Z,22.00
2018-08-03T02:31:02.417Z,22.00
2018-08-03T02:35:55.520Z,22.00
2018-08-03T02:40:48.538Z,21.90
2018-08-03T02:45:41.636Z,21.90
2018-08-03T02:50:34.666Z,21.90
2018-08-03T02:55:27.704Z,21.80
2018-08-03T03:00:20.745Z,21.70
2018-08-03T03:05:13.774Z,21.80
2018-08-03T03:10:06.763Z,21.80
2018-08-03T03:14:59.798Z,21.70
2018-08-03T03:19:52.827Z,21.70
2018-08-03T03:29:38.802Z,21.70
2018-08-03T03:34:31.862Z,21.70
2018-08-03T03:39:24.862Z,21.60
2018-08-03T03:49:10.820Z,21.50
2018-08-03T03:58:56.753Z,21.40
2018-08-03T04:03:49.772Z,21.40
2018-08-03T04:08:42.748Z,21.30
2018-08-03T04:13:35.747Z,21.30
2018-08-03T04:18:28.720Z,21.20
2018-08-03T04:23:21.770Z,21.30
2018-08-03T04:28:14.788Z,21.50
2018-08-03T04:33:07.756Z,21.70
2018-08-03T04:38:00.781Z,22.30
2018-08-03T04:42:53.792Z,23.00
2018-08-03T04:47:46.742Z,23.70
2018-08-03T04:52:39.773Z,24.40
2018-08-03T04:57:32.748Z,24.80
2018-08-03T05:02:25.797Z,25.60
2018-08-03T05:07:18.810Z,25.90
2018-08-03T05:12:11.872Z,27.00
2018-08-03T05:17:04.888Z,27.80
2018-08-03T05:21:57.922Z,28.50
2018-08-03T05:26:50.924Z,29.20
2018-08-03T05:31:43.955Z,29.40
2018-08-03T05:36:36.961Z,29.70
2018-08-03T05:46:22.984Z,30.30
2018-08-03T05:51:16.023Z,30.80
2018-08-03T05:56:09.053Z,31.70
2018-08-03T06:05:55.505Z,31.60
2018-08-03T06:10:51.684Z,31.30
2018-08-03T06:15:44.713Z,30.50
2018-08-03T06:20:37.738Z,30.70
2018-08-03T06:25:30.708Z,31.70
2018-08-03T06:30:23.884Z,32.40
2018-08-03T06:35:16.884Z,32.40
2018-08-03T06:45:10.067Z,30.50
2018-08-03T06:50:05.567Z,30.10
2018-08-03T06:54:59.150Z,29.60
2018-08-03T06:59:52.751Z,29.00
2018-08-03T07:04:46.072Z,29.30
2018-08-03T07:09:39.710Z,29.30
2018-08-03T07:14:33.130Z,27.60
2018-08-03T07:19:40.715Z,27.50
2018-08-03T07:24:34.928Z,27.20
2018-08-03T07:29:27.982Z,26.80
2018-08-03T07:34:20.956Z,26.70
2018-08-03T07:39:13.977Z,26.90
2018-08-03T07:44:15.495Z,27.20
2018-08-03T07:49:09.670Z,27.40
2018-08-03T07:54:04.557Z,27.20
2018-08-03T07:58:58.038Z,27.00
2018-08-03T08:03:51.731Z,27.30
2018-08-03T08:08:45.514Z,27.20
2018-08-03T08:18:31.732Z,26.90
2018-08-03T08:23:51.881Z,27.10
2018-08-03T08:28:52.043Z,27.60
2018-08-03T08:33:45.724Z,27.60
2018-08-03T08:38:40.616Z,28.20
2018-08-03T08:43:37.481Z,29.10
2018-08-03T08:48:31.188Z,29.40
2018-08-03T08:53:24.966Z,29.70
2018-08-03T08:58:18.426Z,30.00
2018-08-03T09:03:12.404Z,30.20
2018-08-03T09:08:09.820Z,30.40
2018-08-03T09:17:56.132Z,30.90
2018-08-03T09:22:50.155Z,31.10
2018-08-03T09:27:43.214Z,31.20
2018-08-03T09:32:37.391Z,31.10
2018-08-03T09:37:32.417Z,30.50
2018-08-03T09:52:16.341Z,31.40
2018-08-03T09:57:09.415Z,31.70
2018-08-03T10:02:02.536Z,31.70
2018-08-03T10:06:57.007Z,31.20
2018-08-03T10:16:43.347Z,31.20
2018-08-03T10:21:36.369Z,30.90
2018-08-03T10:26:30.089Z,31.00
2018-08-03T10:31:23.186Z,31.70
2018-08-03T10:50:56.447Z,30.90
2018-08-03T10:55:50.648Z,31.30
2018-08-03T11:00:44.316Z,31.40
2018-08-03T11:05:37.419Z,31.40
2018-08-03T11:10:30.469Z,31.30
2018-08-03T11:15:23.567Z,31.30
2018-08-03T11:20:16.864Z,31.60
2018-08-03T11:25:10.014Z,31.40
2018-08-03T11:30:04.741Z,31.40
2018-08-03T11:39:50.818Z,31.60
2018-08-03T11:44:43.837Z,31.30
2018-08-03T11:49:36.990Z,31.60
2018-08-03T11:59:23.163Z,31.90
2018-08-03T12:09:09.284Z,32.00
2018-08-03T12:14:02.437Z,32.30
2018-08-03T12:18:55.756Z,32.10
2018-08-03T12:23:48.910Z,32.20
2018-08-03T12:28:41.851Z,32.40
2018-08-03T12:33:34.909Z,32.60
2018-08-03T12:38:28.068Z,32.40
2018-08-03T12:43:21.146Z,32.60
2018-08-03T12:48:14.279Z,32.30
2018-08-03T12:58:00.369Z,33.00
2018-08-03T13:02:53.410Z,33.00
2018-08-03T13:07:51.248Z,32.80
2018-08-03T13:12:44.541Z,33.20
2018-08-03T13:22:30.857Z,32.40
2018-08-03T13:27:24.035Z,32.70
2018-08-03T13:32:17.011Z,32.80
2018-08-03T13:37:10.053Z,33.30
2018-08-03T13:42:03.116Z,33.20
2018-08-03T13:46:56.188Z,33.20
2018-08-03T13:51:51.825Z,32.90
2018-08-03T13:56:44.847Z,32.80
2018-08-03T14:06:43.324Z,33.20
2018-08-03T14:11:36.413Z,33.40
2018-08-03T14:16:29.559Z,33.30
2018-08-03T14:21:22.632Z,32.90
2018-08-03T14:26:16.195Z,33.00
2018-08-03T14:31:21.920Z,32.90
2018-08-03T14:36:15.796Z,32.90
2018-08-03T14:41:08.919Z,33.20
2018-08-03T14:50:54.996Z,32.90
2018-08-03T14:55:48.483Z,33.30
2018-08-03T15:00:41.544Z,33.00
2018-08-03T15:05:34.628Z,33.10
2018-08-03T15:10:27.766Z,33.10
2018-08-03T15:15:20.841Z,32.90
2018-08-03T15:20:13.897Z,33.00
2018-08-03T15:25:07.009Z,32.80
2018-08-03T15:30:00.104Z,32.60
2018-08-03T15:34:53.119Z,32.60
2018-08-03T15:39:46.113Z,32.60
2018-08-03T15:44:39.137Z,32.80
2018-08-03T15:49:32.146Z,32.40
2018-08-03T15:54:25.137Z,32.60
2018-08-03T15:59:18.300Z,32.70
2018-08-03T16:04:11.309Z,32.80
2018-08-03T16:14:00.099Z,32.70
2018-08-03T16:23:46.145Z,32.70
2018-08-03T16:28:39.183Z,32.80
2018-08-03T16:33:32.170Z,32.60
2018-08-03T16:38:25.172Z,32.60
2018-08-03T16:43:18.197Z,32.50
2018-08-03T16:48:11.209Z,32.40
2018-08-03T16:53:04.451Z,32.40
2018-08-03T16:57:57.565Z,32.30
2018-08-03T17:02:50.604Z,32.20
2018-08-03T17:12:36.885Z,32.20
2018-08-03T17:17:29.878Z,32.00
2018-08-03T17:22:22.892Z,32.10
2018-08-03T17:27:15.916Z,32.00
2018-08-03T17:32:08.936Z,31.90
2018-08-03T17:37:02.070Z,31.90
2018-08-03T17:41:54.945Z,31.70
2018-08-03T17:46:48.000Z,31.70
2018-08-03T17:51:40.996Z,31.60
2018-08-03T17:56:34.016Z,31.60
2018-08-03T18:01:27.091Z,31.50
2018-08-03T18:06:20.516Z,31.40
2018-08-03T18:16:07.007Z,31.30
2018-08-03T18:21:00.077Z,31.20
2018-08-03T18:25:53.081Z,31.10
2018-08-03T18:30:46.073Z,31.00
2018-08-03T18:40:32.236Z,30.70
2018-08-03T18:45:25.249Z,30.60
2018-08-03T18:50:18.240Z,30.50
2018-08-03T18:55:11.267Z,30.30
2018-08-03T19:00:04.581Z,30.20
2018-08-03T19:04:57.540Z,30.10
2018-08-03T19:09:50.562Z,30.00
2018-08-03T19:14:43.568Z,29.90
2018-08-03T19:19:36.609Z,29.80
2018-08-03T19:24:29.620Z,29.70
2018-08-03T19:29:22.664Z,29.60
2018-08-03T19:34:15.741Z,29.50
2018-08-03T19:39:10.087Z,29.40
2018-08-03T19:48:56.275Z,29.20
2018-08-03T19:53:49.248Z,29.10
2018-08-03T19:58:42.354Z,29.10
2018-08-03T20:03:35.326Z,28.90
2018-08-03T20:08:28.289Z,28.80
2018-08-03T20:13:21.358Z,28.70
2018-08-03T20:18:14.303Z,28.60
2018-08-03T20:23:07.308Z,28.50
2018-08-03T20:32:53.279Z,28.40
2018-08-03T20:37:46.272Z,28.40
2018-08-03T20:42:39.291Z,28.30
2018-08-03T20:47:32.307Z,28.20
2018-08-03T20:52:25.336Z,28.20
2018-08-03T20:57:18.359Z,28.10
2018-08-03T21:02:11.364Z,28.10
2018-08-03T21:07:04.373Z,28.00
2018-08-03T21:11:57.460Z,28.00
2018-08-03T21:16:50.428Z,27.90
2018-08-03T21:21:43.437Z,27.70
2018-08-03T21:26:36.452Z,27.70
2018-08-03T21:31:29.496Z,27.70
2018-08-03T21:36:22.491Z,27.60
2018-08-03T21:41:15.488Z,27.60
2018-08-03T21:46:08.502Z,27.60
2018-08-03T21:51:01.507Z,27.60
2018-08-03T21:55:54.488Z,27.50
2018-08-03T22:00:47.508Z,27.40
2018-08-03T22:10:33.416Z,27.10
2018-08-03T22:15:26.420Z,26.90
2018-08-03T22:20:19.409Z,26.80
2018-08-03T22:25:12.433Z,26.70
2018-08-03T22:34:58.451Z,26.50
2018-08-03T22:39:51.443Z,26.40
2018-08-03T22:44:44.476Z,26.30
2018-08-03T22:49:37.591Z,26.10
2018-08-03T22:59:23.516Z,25.90
2018-08-03T23:09:09.848Z,25.70
2018-08-03T23:14:02.988Z,25.60
2018-08-03T23:18:55.984Z,25.50
2018-08-03T23:23:48.965Z,25.50
2018-08-03T23:28:42.005Z,25.50
2018-08-03T23:33:35.061Z,25.40
2018-08-03T23:38:28.085Z,25.30
2018-08-03T23:48:14.020Z,25.00
2018-08-03T23:53:07.013Z,25.00
2018-08-03T23:58:00.021Z,25.00
